createdAt,value
2024-05-09T00:03:08.353Z,6.61
2024-05-09T00:23:08.262Z,6.48
2024-05-09T00:43:07.982Z,6.45
2024-05-09T01:03:08.678Z,6.27
2024-05-09T01:23:08.143Z,5.96
2024-05-09T01:43:08.511Z,5.64
2024-05-09T02:03:08.321Z,5.4
2024-05-09T02:23:08.228Z,5.14
2024-05-09T02:43:09.018Z,4.94
2024-05-09T03:03:09.312Z,4.74
2024-05-09T03:23:09.113Z,4.61
2024-05-09T03:43:08.484Z,4.43
2024-05-09T04:03:09.801Z,4.45
2024-05-09T04:23:09.157Z,4.55
2024-05-09T04:43:08.538Z,4.7
2024-05-09T05:03:09.706Z,4.98
2024-05-09T05:23:08.669Z,5.41
2024-05-09T05:43:08.813Z,6.09
2024-05-09T06:03:09.234Z,6.91
2024-05-09T06:23:08.979Z,7.81
2024-05-09T06:43:08.740Z,8.88
2024-05-09T07:03:09.164Z,9.74
2024-05-09T07:23:08.881Z,11.09
2024-05-09T07:43:08.860Z,12.29
2024-05-09T08:03:09.293Z,13.41
2024-05-09T08:23:08.900Z,14.52
2024-05-09T08:43:09.760Z,15.78
2024-05-09T09:03:09.269Z,16.21
2024-05-09T09:23:09.310Z,16.14
2024-05-09T09:43:09.128Z,18.05
2024-05-09T10:03:09.104Z,17.99
2024-05-09T10:23:09.073Z,20.81
2024-05-09T10:43:09.196Z,21.38
2024-05-09T11:03:09.152Z,20.42
2024-05-09T11:23:09.197Z,21.67
2024-05-09T11:43:09.362Z,24.13
2024-05-09T12:03:08.952Z,23.65
2024-05-09T12:23:10.013Z,22.82
2024-05-09T12:43:10.106Z,26.11
2024-05-09T13:03:09.503Z,22.98
2024-05-09T13:23:09.333Z,25.61
2024-05-09T13:43:09.726Z,25.02
2024-05-09T14:03:09.552Z,26.49
2024-05-09T14:23:09.535Z,25.58
2024-05-09T14:43:09.440Z,22.55
2024-05-09T15:03:09.100Z,22.35
2024-05-09T15:23:09.531Z,22.56
2024-05-09T15:43:10.521Z,22.2
2024-05-09T16:03:09.957Z,20.96
2024-05-09T16:23:09.766Z,19.99
2024-05-09T16:43:10.075Z,19.51
2024-05-09T17:03:10.259Z,19.36
2024-05-09T17:23:09.641Z,19.18
2024-05-09T17:43:10.364Z,18.75
2024-05-09T18:03:09.787Z,18.05
2024-05-09T18:23:09.855Z,17.42
2024-05-09T18:43:11.702Z,16.96
2024-05-09T19:03:11.051Z,16.59
2024-05-09T19:23:09.853Z,16.2
2024-05-09T19:43:10.004Z,15.8
2024-05-09T20:03:10.401Z,15.36
2024-05-09T20:23:10.309Z,14.98
2024-05-09T20:43:10.432Z,14.47
2024-05-09T21:03:10.461Z,14.1
2024-05-09T21:23:09.980Z,13.6
2024-05-09T21:43:10.188Z,13.04
2024-05-09T22:03:10.984Z,12.49
2024-05-09T22:23:10.085Z,11.91
2024-05-09T22:43:10.373Z,11.55
2024-05-09T23:03:10.206Z,11.22
2024-05-09T23:23:11.109Z,10.79
2024-05-09T23:43:10.636Z,10.45
